Time;durP1;ratioP1;P1;durP2;ratioP2;P2;SDS_P1;SDS_P2;PMS_P1;PMS_P2;Temp;Humidity;BMP_temperature;BMP_pressure;BME280_temperature;BME280_humidity;BME280_pressure;Samples;Min_cycle;Max_cycle;Signal;HPM_P1;HPM_P2
2022/10/09 00:02:06;;;;;;;14.20;4.43;;;;;;;;;;5050904;28;20116;-68
2022/10/09 00:04:32;;;;;;;9.93;4.75;;;;;;;;;;5032838;28;20450;-68
2022/10/09 00:06:58;;;;;;;11.77;4.32;;;;;;;;;;5033065;28;20057;-68
2022/10/09 00:09:25;;;;;;;11.40;4.97;;;;;;;;;;5032569;28;20128;-68
2022/10/09 00:11:51;;;;;;;11.73;4.50;;;;;;;;;;5032560;28;20487;-68
2022/10/09 00:14:17;;;;;;;9.68;4.00;;;;;;;;;;5032656;28;20056;-68
2022/10/09 00:16:43;;;;;;;15.25;4.50;;;;;;;;;;5032656;28;20136;-68
2022/10/09 00:19:09;;;;;;;12.93;4.20;;;;;;;;;;5032772;28;20041;-68
2022/10/09 00:21:35;;;;;;;11.23;4.50;;;;;;;;;;5033055;28;20043;-68
2022/10/09 00:24:02;;;;;;;10.05;4.63;;;;;;;;;;5032507;28;20048;-68
2022/10/09 00:26:28;;;;;;;11.30;4.65;;;;;;;;;;5032479;28;20483;-68
2022/10/09 00:28:54;;;;;;;11.63;4.82;;;;;;;;;;5016128;28;20407;-68
2022/10/09 00:31:20;;;;;;;10.98;4.53;;;;;;;;;;5032097;28;20184;-68
2022/10/09 00:33:46;;;;;;;10.88;4.43;;;;;;;;;;5032546;28;20120;-68
2022/10/09 00:36:14;;;;;;;13.35;4.82;;;;;;;;;;5032517;28;20033;-68
2022/10/09 00:38:41;;;;;;;9.38;4.38;;;;;;;;;;5049899;28;20049;-68
2022/10/09 00:41:08;;;;;;;12.02;4.47;;;;;;;;;;5032528;28;20037;-68
2022/10/09 00:43:50;;;;;;;14.57;4.78;;;;;;;;;;5032438;28;20052;-68
2022/10/09 00:46:22;;;;;;;12.27;4.75;;;;;;;;;;5031986;28;20522;-68
2022/10/09 00:48:53;;;;;;;12.90;4.40;;;;;;;;;;5032403;28;20152;-68
2022/10/09 00:51:19;;;;;;;11.18;5.07;;;;;;;;;;5032418;28;20051;-68
2022/10/09 00:53:45;;;;;;;16.98;4.65;;;;;;;;;;5049839;28;20566;-68
2022/10/09 00:56:11;;;;;;;10.20;4.95;;;;;;;;;;5032309;28;20045;-68
2022/10/09 00:58:37;;;;;;;11.52;4.97;;;;;;;;;;5015681;28;20037;-68
2022/10/09 01:01:03;;;;;;;10.30;4.20;;;;;;;;;;5031921;28;20120;-68
2022/10/09 01:03:29;;;;;;;10.93;4.30;;;;;;;;;;5032477;28;20095;-68
2022/10/09 01:06:02;;;;;;;10.50;4.20;;;;;;;;;;5032456;28;20049;-68
2022/10/09 01:08:35;;;;;;;10.30;4.57;;;;;;;;;;5031686;28;20041;-68
2022/10/09 01:11:07;;;;;;;11.70;4.95;;;;;;;;;;5018966;28;20181;-68
2022/10/09 01:13:47;;;;;;;11.88;4.63;;;;;;;;;;5012579;28;20049;-68
2022/10/09 01:16:18;;;;;;;12.13;5.20;;;;;;;;;;4995790;28;20111;-68
2022/10/09 01:18:56;;;;;;;12.15;4.50;;;;;;;;;;5012088;28;20129;-68
2022/10/09 01:21:21;;;;;;;8.82;4.40;;;;;;;;;;5012422;28;20053;-68
2022/10/09 01:23:48;;;;;;;11.90;4.70;;;;;;;;;;5033003;28;20379;-68
2022/10/09 01:26:20;;;;;;;12.60;4.90;;;;;;;;;;4999598;28;20073;-68
2022/10/09 01:28:47;;;;;;;13.02;5.10;;;;;;;;;;4999663;28;20041;-68
2022/10/09 01:31:15;;;;;;;11.35;5.15;;;;;;;;;;5016074;28;20053;-68
2022/10/09 01:33:41;;;;;;;16.25;5.40;;;;;;;;;;5015829;28;20041;-68
2022/10/09 01:36:08;;;;;;;10.15;4.45;;;;;;;;;;5016184;28;20567;-68
2022/10/09 01:38:34;;;;;;;9.77;5.40;;;;;;;;;;5015558;28;20163;-68
2022/10/09 01:41:01;;;;;;;13.65;4.97;;;;;;;;;;5033733;28;20049;-68
2022/10/09 01:43:27;;;;;;;6.38;4.30;;;;;;;;;;5015953;28;20049;-68
2022/10/09 01:46:13;;;;;;;9.98;4.57;;;;;;;;;;5015494;28;20041;-68
2022/10/09 01:48:40;;;;;;;9.25;4.50;;;;;;;;;;5015666;28;20045;-68
2022/10/09 01:51:06;;;;;;;7.05;5.05;;;;;;;;;;4999227;28;20034;-68
2022/10/09 01:53:33;;;;;;;10.85;5.13;;;;;;;;;;5032943;28;20041;-68
2022/10/09 01:56:03;;;;;;;7.88;5.10;;;;;;;;;;5015784;28;20053;-68
2022/10/09 01:58:39;;;;;;;12.45;5.28;;;;;;;;;;5015340;28;20133;-68
2022/10/09 02:01:07;;;;;;;10.13;4.97;;;;;;;;;;5015014;28;20043;-68
2022/10/09 02:03:34;;;;;;;9.57;5.00;;;;;;;;;;5015397;28;20051;-68
2022/10/09 02:06:01;;;;;;;9.93;5.10;;;;;;;;;;5015266;28;20045;-69
2022/10/09 02:08:29;;;;;;;10.20;5.30;;;;;;;;;;4998755;28;20039;-68
2022/10/09 02:10:56;;;;;;;13.95;5.65;;;;;;;;;;5027125;28;20794;-68
2022/10/09 02:13:22;;;;;;;13.73;5.85;;;;;;;;;;5052701;28;20407;-68
2022/10/09 02:15:48;;;;;;;13.43;5.63;;;;;;;;;;5034797;28;20048;-68
2022/10/09 02:18:15;;;;;;;13.75;5.30;;;;;;;;;;5052869;28;20154;-68
2022/10/09 02:20:44;;;;;;;12.57;6.10;;;;;;;;;;5034861;28;20037;-68
2022/10/09 02:23:11;;;;;;;9.77;4.95;;;;;;;;;;5034722;28;20053;-68
2022/10/09 02:25:37;;;;;;;12.00;6.00;;;;;;;;;;5034824;28;20052;-68
2022/10/09 02:28:04;;;;;;;9.68;5.28;;;;;;;;;;5034784;28;20060;-68
2022/10/09 02:30:38;;;;;;;10.32;5.32;;;;;;;;;;5034502;28;20049;-68
2022/10/09 02:33:05;;;;;;;11.30;4.72;;;;;;;;;;5017934;28;20124;-68
2022/10/09 02:35:31;;;;;;;10.02;4.85;;;;;;;;;;5033425;28;20084;-68
2022/10/09 02:37:57;;;;;;;9.15;4.72;;;;;;;;;;5052027;28;20041;-68
2022/10/09 02:40:23;;;;;;;8.50;4.70;;;;;;;;;;5034529;28;20498;-68
2022/10/09 02:42:49;;;;;;;11.07;5.50;;;;;;;;;;5034809;28;20048;-68
2022/10/09 02:45:15;;;;;;;10.85;5.03;;;;;;;;;;5052141;28;20033;-68
2022/10/09 02:47:41;;;;;;;10.07;5.30;;;;;;;;;;5034715;28;20041;-68
2022/10/09 02:50:07;;;;;;;12.00;5.25;;;;;;;;;;5034606;28;20079;-68
2022/10/09 02:52:33;;;;;;;10.32;5.32;;;;;;;;;;5034063;28;20091;-68
2022/10/09 02:54:59;;;;;;;13.95;5.38;;;;;;;;;;5034402;28;20044;-68
2022/10/09 02:57:25;;;;;;;11.18;5.40;;;;;;;;;;5034515;28;20049;-68
2022/10/09 02:59:51;;;;;;;12.18;5.90;;;;;;;;;;5051902;28;20037;-68
2022/10/09 03:02:17;;;;;;;10.75;5.30;;;;;;;;;;5034548;28;20048;-68
2022/10/09 03:04:44;;;;;;;11.88;5.43;;;;;;;;;;5034025;28;20446;-68
2022/10/09 03:07:10;;;;;;;10.35;5.65;;;;;;;;;;5033425;28;20128;-68
2022/10/09 03:09:36;;;;;;;12.93;5.65;;;;;;;;;;5033654;28;20064;-68
2022/10/09 03:12:02;;;;;;;11.07;5.25;;;;;;;;;;5017317;28;20045;-68
2022/10/09 03:14:28;;;;;;;9.50;4.70;;;;;;;;;;5033458;28;20087;-68
2022/10/09 03:16:54;;;;;;;8.77;5.20;;;;;;;;;;5033715;28;20037;-68
2022/10/09 03:19:20;;;;;;;11.68;5.03;;;;;;;;;;5033926;28;20131;-68
2022/10/09 03:21:46;;;;;;;7.07;4.75;;;;;;;;;;5033514;28;20045;-68
2022/10/09 03:24:12;;;;;;;8.07;4.70;;;;;;;;;;5033562;28;20435;-68
2022/10/09 03:26:38;;;;;;;10.18;4.70;;;;;;;;;;5033666;28;20040;-68
2022/10/09 03:29:04;;;;;;;7.75;5.10;;;;;;;;;;5033276;28;20047;-68
2022/10/09 03:31:30;;;;;;;10.82;5.07;;;;;;;;;;5033645;28;20052;-68
2022/10/09 03:33:56;;;;;;;7.05;4.32;;;;;;;;;;5033538;28;20126;-69
2022/10/09 03:36:22;;;;;;;7.47;4.35;;;;;;;;;;5051255;28;20456;-68
2022/10/09 03:38:48;;;;;;;10.98;5.10;;;;;;;;;;5051251;28;20047;-68
2022/10/09 03:41:14;;;;;;;9.30;5.32;;;;;;;;;;5033577;28;20379;-68
2022/10/09 03:43:40;;;;;;;12.20;4.78;;;;;;;;;;5033220;28;20041;-68
2022/10/09 03:46:07;;;;;;;8.90;4.55;;;;;;;;;;5032993;28;20037;-68
2022/10/09 03:48:34;;;;;;;7.85;4.60;;;;;;;;;;5033320;28;20044;-68
2022/10/09 03:51:00;;;;;;;7.80;4.32;;;;;;;;;;5032709;28;20045;-68
2022/10/09 03:53:26;;;;;;;8.65;4.50;;;;;;;;;;5051252;28;20119;-68
2022/10/09 03:55:53;;;;;;;8.40;4.10;;;;;;;;;;5033280;28;20037;-68
2022/10/09 03:58:18;;;;;;;8.07;3.90;;;;;;;;;;5050654;28;20454;-68
2022/10/09 04:00:45;;;;;;;7.38;3.92;;;;;;;;;;5051279;28;20041;-68
2022/10/09 04:03:11;;;;;;;7.43;4.18;;;;;;;;;;5050963;28;20048;-68
2022/10/09 04:05:37;;;;;;;8.30;3.90;;;;;;;;;;5050468;28;20484;-68
2022/10/09 04:08:03;;;;;;;9.80;4.00;;;;;;;;;;5051101;28;20159;-68
2022/10/09 04:10:29;;;;;;;7.32;3.55;;;;;;;;;;5032978;28;20550;-68
2022/10/09 04:12:55;;;;;;;5.75;3.70;;;;;;;;;;5032392;28;20107;-68
2022/10/09 04:15:21;;;;;;;6.05;3.95;;;;;;;;;;5051051;28;20037;-68
2022/10/09 04:17:47;;;;;;;6.93;4.38;;;;;;;;;;5050664;28;20777;-68
2022/10/09 04:20:13;;;;;;;4.57;3.50;;;;;;;;;;5032522;28;20109;-68
2022/10/09 04:22:39;;;;;;;6.40;4.15;;;;;;;;;;5032994;28;20146;-68
2022/10/09 04:25:06;;;;;;;5.43;3.45;;;;;;;;;;5032788;28;20098;-68
2022/10/09 04:27:32;;;;;;;6.93;3.30;;;;;;;;;;5016095;28;20040;-68
2022/10/09 04:29:58;;;;;;;5.32;3.17;;;;;;;;;;5032719;28;20048;-68
2022/10/09 04:32:24;;;;;;;5.30;3.63;;;;;;;;;;5032638;28;20041;-68
2022/10/09 04:34:50;;;;;;;5.18;3.50;;;;;;;;;;5032375;28;20076;-68
2022/10/09 04:37:16;;;;;;;5.95;3.15;;;;;;;;;;5050327;28;20040;-68
2022/10/09 04:39:42;;;;;;;4.03;2.78;;;;;;;;;;5050226;28;20036;-68
2022/10/09 04:42:08;;;;;;;8.10;2.67;;;;;;;;;;5032630;28;20084;-68
2022/10/09 04:44:34;;;;;;;4.20;3.00;;;;;;;;;;5032244;28;20468;-68
2022/10/09 04:47:00;;;;;;;4.38;3.15;;;;;;;;;;5032400;28;20076;-68
2022/10/09 04:49:26;;;;;;;5.57;3.35;;;;;;;;;;5015999;28;20098;-68
2022/10/09 04:51:52;;;;;;;3.65;3.15;;;;;;;;;;5032030;28;20045;-68
2022/10/09 04:54:18;;;;;;;4.88;2.80;;;;;;;;;;5032273;28;20148;-68
2022/10/09 04:56:44;;;;;;;2.83;2.33;;;;;;;;;;5032521;28;20045;-68
2022/10/09 04:59:10;;;;;;;4.07;2.55;;;;;;;;;;5035844;28;20095;-68
2022/10/09 05:01:36;;;;;;;2.72;2.20;;;;;;;;;;5036467;28;20041;-68
2022/10/09 05:04:02;;;;;;;5.10;2.97;;;;;;;;;;5036300;28;20041;-68
2022/10/09 05:06:28;;;;;;;4.15;2.60;;;;;;;;;;5053845;28;20091;-68
2022/10/09 05:08:55;;;;;;;5.40;2.80;;;;;;;;;;5036310;28;20123;-68
2022/10/09 05:11:22;;;;;;;3.42;2.40;;;;;;;;;;5036021;28;20553;-68
2022/10/09 05:13:50;;;;;;;4.88;2.72;;;;;;;;;;5053830;28;20175;-68
2022/10/09 05:16:17;;;;;;;6.38;2.42;;;;;;;;;;5036326;28;20048;-68
2022/10/09 05:18:44;;;;;;;2.95;2.22;;;;;;;;;;5035942;28;20651;-68
2022/10/09 05:21:11;;;;;;;3.35;2.40;;;;;;;;;;5053500;28;20142;-68
2022/10/09 05:23:37;;;;;;;3.53;2.78;;;;;;;;;;5054152;28;20120;-68
2022/10/09 05:26:04;;;;;;;3.47;2.50;;;;;;;;;;5053810;28;20040;-68
2022/10/09 05:28:31;;;;;;;7.88;2.80;;;;;;;;;;5053648;28;20041;-68
2022/10/09 05:30:57;;;;;;;3.33;2.83;;;;;;;;;;5054022;28;20130;-68
2022/10/09 05:33:23;;;;;;;4.68;2.70;;;;;;;;;;5035567;28;20055;-68
2022/10/09 05:35:53;;;;;;;3.67;2.75;;;;;;;;;;5035655;28;20056;-68
2022/10/09 05:38:20;;;;;;;3.13;2.83;;;;;;;;;;5036055;28;20221;-68
2022/10/09 05:40:54;;;;;;;3.05;2.75;;;;;;;;;;5035735;28;20375;-68
2022/10/09 05:43:23;;;;;;;2.80;2.47;;;;;;;;;;5035211;28;20052;-68
2022/10/09 05:45:49;;;;;;;4.00;2.50;;;;;;;;;;5035635;28;20056;-69
2022/10/09 05:48:15;;;;;;;3.47;3.17;;;;;;;;;;5053225;28;20033;-68
2022/10/09 05:50:41;;;;;;;5.15;3.00;;;;;;;;;;5018887;28;20083;-68
2022/10/09 05:53:07;;;;;;;3.33;2.92;;;;;;;;;;5035396;28;20044;-68
2022/10/09 05:55:33;;;;;;;6.25;3.28;;;;;;;;;;5053396;28;20138;-68
2022/10/09 05:57:59;;;;;;;4.70;3.33;;;;;;;;;;5034697;28;20040;-68
2022/10/09 06:00:25;;;;;;;4.60;3.00;;;;;;;;;;5035072;28;20119;-68
2022/10/09 06:02:51;;;;;;;2.75;2.50;;;;;;;;;;5053134;28;20536;-68
2022/10/09 06:05:17;;;;;;;3.65;2.95;;;;;;;;;;5034557;28;20040;-68
2022/10/09 06:07:45;;;;;;;4.63;3.00;;;;;;;;;;5052879;28;20037;-68
2022/10/09 06:10:11;;;;;;;5.28;3.33;;;;;;;;;;5028725;28;20053;-68
2022/10/09 06:12:37;;;;;;;4.72;3.15;;;;;;;;;;5014817;28;20048;-68
2022/10/09 06:15:03;;;;;;;6.38;3.22;;;;;;;;;;5015143;28;20045;-68
2022/10/09 06:17:29;;;;;;;7.90;3.10;;;;;;;;;;5015175;28;20045;-67
2022/10/09 06:19:55;;;;;;;4.15;3.20;;;;;;;;;;5014963;28;20056;-68
2022/10/09 06:22:21;;;;;;;4.57;3.28;;;;;;;;;;5015032;28;20079;-68
2022/10/09 06:24:47;;;;;;;4.60;3.15;;;;;;;;;;5033108;28;20065;-68
2022/10/09 06:27:13;;;;;;;4.95;3.58;;;;;;;;;;5032092;28;20050;-68
2022/10/09 06:29:39;;;;;;;4.10;3.65;;;;;;;;;;5033006;28;20555;-68
2022/10/09 06:32:05;;;;;;;4.97;3.25;;;;;;;;;;4998992;28;20072;-68
2022/10/09 06:34:31;;;;;;;4.00;3.58;;;;;;;;;;4998105;28;20038;-68
2022/10/09 06:36:57;;;;;;;5.07;4.38;;;;;;;;;;5014996;28;20136;-68
2022/10/09 06:39:25;;;;;;;6.97;4.30;;;;;;;;;;5015247;28;20873;-68
2022/10/09 06:41:51;;;;;;;6.13;4.75;;;;;;;;;;5014685;28;20041;-68
2022/10/09 06:44:17;;;;;;;6.68;4.70;;;;;;;;;;5015049;28;20632;-68
2022/10/09 06:46:44;;;;;;;8.02;5.47;;;;;;;;;;5032318;28;20046;-68
2022/10/09 06:49:10;;;;;;;6.95;4.78;;;;;;;;;;5032335;28;20042;-68
2022/10/09 06:51:36;;;;;;;7.85;5.15;;;;;;;;;;5014582;28;20092;-68
2022/10/09 06:54:04;;;;;;;7.75;5.30;;;;;;;;;;5014542;28;20041;-68
2022/10/09 06:56:30;;;;;;;9.73;5.38;;;;;;;;;;5014106;28;20041;-68
2022/10/09 06:59:00;;;;;;;8.65;5.80;;;;;;;;;;5014407;28;20051;-68
2022/10/09 07:01:31;;;;;;;8.10;6.25;;;;;;;;;;5014613;28;20538;-68
2022/10/09 07:03:58;;;;;;;10.23;6.05;;;;;;;;;;5014101;28;20411;-68
2022/10/09 07:06:25;;;;;;;9.07;6.13;;;;;;;;;;5014147;28;20048;-68
2022/10/09 07:08:54;;;;;;;9.55;5.88;;;;;;;;;;5031980;28;20044;-68
2022/10/09 07:11:21;;;;;;;11.75;6.55;;;;;;;;;;5028953;28;20056;-68
2022/10/09 07:13:48;;;;;;;12.75;6.47;;;;;;;;;;5033695;28;20048;-68
2022/10/09 07:16:17;;;;;;;9.32;6.50;;;;;;;;;;5033853;28;20037;-68
2022/10/09 07:18:43;;;;;;;12.55;7.05;;;;;;;;;;5051365;28;20047;-68
2022/10/09 07:21:10;;;;;;;14.10;7.55;;;;;;;;;;5033498;28;20459;-68
2022/10/09 07:23:36;;;;;;;11.18;6.78;;;;;;;;;;5033865;28;20107;-68
2022/10/09 07:26:07;;;;;;;15.93;8.07;;;;;;;;;;5033082;28;20044;-68
2022/10/09 07:28:33;;;;;;;16.30;8.17;;;;;;;;;;5033536;28;20462;-68
2022/10/09 07:31:01;;;;;;;17.63;7.90;;;;;;;;;;5017162;28;20060;-68
2022/10/09 07:33:27;;;;;;;16.77;7.97;;;;;;;;;;5033027;28;20064;-68
2022/10/09 07:35:55;;;;;;;16.38;8.25;;;;;;;;;;5051568;28;20151;-68
2022/10/09 07:38:21;;;;;;;16.15;8.30;;;;;;;;;;5033336;28;20184;-68
2022/10/09 07:40:47;;;;;;;17.52;9.05;;;;;;;;;;5033197;28;20049;-68
2022/10/09 07:43:13;;;;;;;14.82;8.38;;;;;;;;;;5033422;28;20073;-68
2022/10/09 07:45:39;;;;;;;16.17;8.65;;;;;;;;;;5033576;28;20052;-68
2022/10/09 07:48:05;;;;;;;16.20;8.60;;;;;;;;;;5032758;28;20164;-68
2022/10/09 07:50:31;;;;;;;15.32;10.15;;;;;;;;;;5033049;28;20113;-68
2022/10/09 07:52:57;;;;;;;15.00;9.15;;;;;;;;;;5033467;28;20124;-68
2022/10/09 07:55:24;;;;;;;13.43;10.13;;;;;;;;;;5032902;28;20120;-68
2022/10/09 07:57:50;;;;;;;11.43;8.05;;;;;;;;;;5033303;28;20495;-68
2022/10/09 08:00:16;;;;;;;14.50;8.07;;;;;;;;;;5033263;28;20045;-68
2022/10/09 08:02:43;;;;;;;15.50;8.75;;;;;;;;;;5032541;28;20037;-68
2022/10/09 08:05:09;;;;;;;15.40;9.27;;;;;;;;;;5032692;28;20048;-68
2022/10/09 08:07:35;;;;;;;12.77;8.55;;;;;;;;;;5033153;28;20522;-68
2022/10/09 08:10:02;;;;;;;14.95;8.27;;;;;;;;;;5032124;28;20063;-68
2022/10/09 08:12:28;;;;;;;12.95;8.73;;;;;;;;;;5050831;28;20049;-68
2022/10/09 08:14:54;;;;;;;16.10;9.45;;;;;;;;;;5032712;28;20434;-68
2022/10/09 08:17:20;;;;;;;13.73;9.30;;;;;;;;;;5016396;28;20053;-68
2022/10/09 08:19:46;;;;;;;17.50;9.68;;;;;;;;;;5050569;28;20040;-68
2022/10/09 08:22:12;;;;;;;12.40;9.38;;;;;;;;;;5032927;28;20047;-68
2022/10/09 08:24:38;;;;;;;17.60;8.80;;;;;;;;;;5050527;28;20079;-68
2022/10/09 08:27:05;;;;;;;15.52;9.55;;;;;;;;;;5032776;28;20044;-68
2022/10/09 08:29:31;;;;;;;16.27;8.93;;;;;;;;;;5032471;28;20029;-68
2022/10/09 08:31:57;;;;;;;20.52;9.38;;;;;;;;;;5031638;28;20051;-68
2022/10/09 08:34:23;;;;;;;21.42;9.70;;;;;;;;;;5032237;28;20037;-68
2022/10/09 08:36:50;;;;;;;15.68;8.95;;;;;;;;;;5032520;28;20118;-68
2022/10/09 08:39:16;;;;;;;14.23;8.93;;;;;;;;;;5032077;28;20439;-68
2022/10/09 08:41:51;;;;;;;14.82;9.77;;;;;;;;;;5032546;28;20033;-68
2022/10/09 08:44:17;;;;;;;17.38;8.85;;;;;;;;;;5032560;28;20111;-68
2022/10/09 08:46:49;;;;;;;18.08;9.82;;;;;;;;;;5031935;28;20081;-68
2022/10/09 08:49:21;;;;;;;19.02;9.90;;;;;;;;;;5032588;28;20127;-68
2022/10/09 08:51:47;;;;;;;18.83;9.80;;;;;;;;;;5050650;28;20049;-68
2022/10/09 08:54:16;;;;;;;21.35;10.70;;;;;;;;;;5031785;28;20041;-68
2022/10/09 08:56:42;;;;;;;20.52;9.90;;;;;;;;;;5050450;28;20119;-68
2022/10/09 08:59:10;;;;;;;22.30;10.32;;;;;;;;;;5032168;28;20091;-68
2022/10/09 09:01:44;;;;;;;20.85;9.88;;;;;;;;;;5032239;28;20468;-68
2022/10/09 09:04:29;;;;;;;14.10;9.70;;;;;;;;;;5032102;28;20083;-68
2022/10/09 09:07:00;;;;;;;15.77;9.70;;;;;;;;;;5028948;28;20183;-68
2022/10/09 09:09:50;;;;;;;17.20;9.63;;;;;;;;;;5029716;28;20060;-68
2022/10/09 09:12:20;;;;;;;16.70;10.52;;;;;;;;;;5028781;28;20440;-68
2022/10/09 09:15:01;;;;;;;18.77;10.57;;;;;;;;;;5012324;28;20044;-68
2022/10/09 09:17:39;;;;;;;19.27;10.35;;;;;;;;;;5012175;28;20051;-68
2022/10/09 09:20:20;;;;;;;17.00;8.88;;;;;;;;;;5012134;28;20099;-68
2022/10/09 09:22:47;;;;;;;18.70;9.00;;;;;;;;;;5030209;28;20121;-68
2022/10/09 09:25:27;;;;;;;16.08;8.55;;;;;;;;;;5031341;28;20076;-68
2022/10/09 09:27:54;;;;;;;16.90;8.40;;;;;;;;;;5050096;28;20087;-68
2022/10/09 09:30:20;;;;;;;16.00;7.22;;;;;;;;;;5031942;28;20045;-68
2022/10/09 09:32:52;;;;;;;12.98;7.22;;;;;;;;;;5031481;28;20143;-68
2022/10/09 09:35:26;;;;;;;16.10;8.73;;;;;;;;;;5032023;28;20049;-68
2022/10/09 09:37:53;;;;;;;19.10;8.00;;;;;;;;;;5050175;28;20037;-68
2022/10/09 09:40:19;;;;;;;13.77;7.57;;;;;;;;;;5049401;28;20167;-68
2022/10/09 09:42:46;;;;;;;15.60;6.55;;;;;;;;;;5050157;28;20433;-68
2022/10/09 09:45:22;;;;;;;15.73;6.15;;;;;;;;;;5035134;28;20040;-68
2022/10/09 09:47:51;;;;;;;17.33;6.10;;;;;;;;;;5035284;28;20146;-68
2022/10/09 09:50:27;;;;;;;13.60;6.07;;;;;;;;;;5019018;28;20048;-68
2022/10/09 09:52:54;;;;;;;13.70;5.07;;;;;;;;;;5035632;28;20499;-68
2022/10/09 09:55:27;;;;;;;13.90;5.30;;;;;;;;;;5018406;28;20558;-68
2022/10/09 09:57:59;;;;;;;14.82;5.45;;;;;;;;;;5034932;28;20036;-68
2022/10/09 10:00:25;;;;;;;12.38;4.50;;;;;;;;;;5035332;28;20102;-68
2022/10/09 10:03:01;;;;;;;17.00;4.57;;;;;;;;;;5034653;28;20099;-68
2022/10/09 10:05:27;;;;;;;12.63;3.95;;;;;;;;;;5035179;28;20037;-68
2022/10/09 10:07:56;;;;;;;13.57;3.97;;;;;;;;;;5034884;28;20049;-68
2022/10/09 10:10:23;;;;;;;15.98;3.80;;;;;;;;;;5034773;28;20479;-68
2022/10/09 10:12:54;;;;;;;10.20;3.67;;;;;;;;;;5034918;28;20045;-68
2022/10/09 10:15:23;;;;;;;13.80;4.18;;;;;;;;;;5034819;28;20059;-68
2022/10/09 10:17:54;;;;;;;12.00;4.05;;;;;;;;;;5018272;28;20041;-68
2022/10/09 10:20:20;;;;;;;10.60;3.58;;;;;;;;;;5034885;28;20060;-68
2022/10/09 10:22:51;;;;;;;9.38;3.13;;;;;;;;;;5034723;28;20071;-68
2022/10/09 10:25:18;;;;;;;16.10;3.50;;;;;;;;;;5035064;28;20095;-68
2022/10/09 10:27:44;;;;;;;12.93;3.45;;;;;;;;;;5034493;28;20044;-68
2022/10/09 10:30:12;;;;;;;13.40;3.70;;;;;;;;;;5052520;28;20044;-68
2022/10/09 10:32:46;;;;;;;11.88;4.30;;;;;;;;;;5034242;28;20088;-68
2022/10/09 10:35:16;;;;;;;12.55;3.50;;;;;;;;;;5034352;28;20048;-68
2022/10/09 10:37:46;;;;;;;8.65;3.17;;;;;;;;;;5034177;28;20123;-69
2022/10/09 10:40:14;;;;;;;11.95;4.15;;;;;;;;;;5034098;28;20033;-69
2022/10/09 10:42:40;;;;;;;8.77;3.88;;;;;;;;;;5034371;28;20037;-69
2022/10/09 10:45:14;;;;;;;11.52;3.70;;;;;;;;;;5017399;28;20045;-69
2022/10/09 10:47:42;;;;;;;13.75;4.60;;;;;;;;;;5034452;28;20052;-69
2022/10/09 10:50:12;;;;;;;9.65;4.00;;;;;;;;;;5052214;28;20041;-69
2022/10/09 10:52:41;;;;;;;7.85;3.72;;;;;;;;;;5033357;28;20131;-69
2022/10/09 10:55:29;;;;;;;13.85;3.80;;;;;;;;;;5032878;28;20132;-68
2022/10/09 10:58:01;;;;;;;10.18;4.38;;;;;;;;;;5033441;28;20055;-68
2022/10/09 11:00:28;;;;;;;11.82;4.00;;;;;;;;;;5016915;28;20064;-68
2022/10/09 11:03:13;;;;;;;10.90;4.55;;;;;;;;;;5033758;28;20059;-68
2022/10/09 11:05:45;;;;;;;9.73;4.30;;;;;;;;;;5033819;28;20534;-68
2022/10/09 11:08:17;;;;;;;9.30;4.15;;;;;;;;;;5033291;28;20049;-68
2022/10/09 11:10:46;;;;;;;12.85;4.18;;;;;;;;;;5033633;28;20496;-68
2022/10/09 11:13:18;;;;;;;14.02;3.70;;;;;;;;;;5033777;28;20479;-68
2022/10/09 11:16:03;;;;;;;11.88;3.70;;;;;;;;;;5032839;28;20095;-68
2022/10/09 11:18:44;;;;;;;11.77;3.40;;;;;;;;;;5017057;28;20142;-68
2022/10/09 11:21:37;;;;;;;8.50;3.10;;;;;;;;;;5033140;28;20029;-68
2022/10/09 11:24:03;;;;;;;;;;;;;;;;;;5020734;28;20538;-68
2022/10/09 11:26:29;;;;;;;11.40;3.55;;;;;;;;;;5033264;28;19925;-68
2022/10/09 11:29:00;;;;;;;8.13;3.33;;;;;;;;;;5033658;28;20131;-68
2022/10/09 11:31:35;;;;;;;6.43;2.58;;;;;;;;;;5033094;28;20061;-68
2022/10/09 11:34:14;;;;;;;10.32;3.17;;;;;;;;;;5033115;28;20041;-68
2022/10/09 11:36:41;;;;;;;10.35;2.80;;;;;;;;;;5033213;28;20045;-68
2022/10/09 11:39:22;;;;;;;10.13;3.08;;;;;;;;;;5032959;28;20036;-68
2022/10/09 11:41:50;;;;;;;10.30;3.42;;;;;;;;;;5033251;28;20036;-68
2022/10/09 11:44:34;;;;;;;6.53;3.00;;;;;;;;;;5032897;28;20045;-68
2022/10/09 11:47:23;;;;;;;8.40;2.70;;;;;;;;;;5050901;28;20045;-68
2022/10/09 11:50:02;;;;;;;10.88;3.40;;;;;;;;;;5022889;28;20057;-68
2022/10/09 11:52:48;;;;;;;8.30;3.35;;;;;;;;;;5032730;28;20048;-68
2022/10/09 11:55:18;;;;;;;11.10;3.70;;;;;;;;;;4992896;28;20072;-68
2022/10/09 11:57:44;;;;;;;8.52;3.17;;;;;;;;;;5050997;28;20045;-68
2022/10/09 12:00:11;;;;;;;10.93;3.03;;;;;;;;;;5032376;28;20052;-68
2022/10/09 12:02:37;;;;;;;8.98;3.58;;;;;;;;;;5032845;28;20411;-68
2022/10/09 12:05:26;;;;;;;8.50;3.28;;;;;;;;;;5032584;28;20091;-66
2022/10/09 12:07:52;;;;;;;9.77;3.22;;;;;;;;;;5021361;28;20080;-66
2022/10/09 12:10:32;;;;;;;8.82;3.50;;;;;;;;;;5025233;28;20049;-66
2022/10/09 12:13:00;;;;;;;6.53;3.10;;;;;;;;;;5012574;28;20049;-68
2022/10/09 12:15:28;;;;;;;7.57;2.85;;;;;;;;;;5012158;28;20046;-66
2022/10/09 12:17:54;;;;;;;9.95;3.28;;;;;;;;;;5012518;28;20045;-66
2022/10/09 12:20:22;;;;;;;12.70;3.58;;;;;;;;;;4996440;28;20046;-67
2022/10/09 12:22:51;;;;;;;11.90;3.20;;;;;;;;;;5012508;28;20672;-68
2022/10/09 12:25:39;;;;;;;7.93;3.42;;;;;;;;;;5012488;28;20029;-66
2022/10/09 12:28:05;;;;;;;10.70;3.33;;;;;;;;;;5012348;28;20041;-66
2022/10/09 12:30:38;;;;;;;14.32;3.80;;;;;;;;;;5011997;28;20065;-66
2022/10/09 12:33:15;;;;;;;9.73;3.20;;;;;;;;;;5030123;28;20033;-66
2022/10/09 12:35:42;;;;;;;7.30;3.10;;;;;;;;;;5012506;28;20400;-66
2022/10/09 12:38:15;;;;;;;13.82;3.30;;;;;;;;;;5011977;28;20388;-66
2022/10/09 12:40:44;;;;;;;11.27;3.97;;;;;;;;;;5030412;28;20049;-66
2022/10/09 12:43:10;;;;;;;8.45;3.25;;;;;;;;;;5030204;28;20052;-67
2022/10/09 12:45:41;;;;;;;9.95;3.47;;;;;;;;;;4995848;28;20045;-68
2022/10/09 12:48:11;;;;;;;9.52;3.30;;;;;;;;;;5012351;28;20083;-67
2022/10/09 12:50:37;;;;;;;10.48;3.40;;;;;;;;;;5012470;28;20075;-67
2022/10/09 12:53:05;;;;;;;7.53;3.30;;;;;;;;;;5030050;28;20045;-67
2022/10/09 12:55:36;;;;;;;10.13;3.05;;;;;;;;;;5012256;28;20048;-67
2022/10/09 12:58:03;;;;;;;9.75;2.92;;;;;;;;;;5011830;28;20896;-67
2022/10/09 13:00:31;;;;;;;12.95;3.05;;;;;;;;;;5011755;28;20468;-67
2022/10/09 13:02:57;;;;;;;6.45;2.88;;;;;;;;;;4995663;28;20041;-67
2022/10/09 13:05:34;;;;;;;9.40;2.63;;;;;;;;;;5012143;28;20491;-67
2022/10/09 13:08:00;;;;;;;7.20;2.65;;;;;;;;;;5011482;28;20076;-67
2022/10/09 13:10:26;;;;;;;11.73;2.95;;;;;;;;;;5011843;28;20135;-67
2022/10/09 13:12:54;;;;;;;12.10;3.22;;;;;;;;;;5012257;28;20041;-67
2022/10/09 13:15:38;;;;;;;8.52;3.10;;;;;;;;;;5011592;28;20103;-67
2022/10/09 13:18:23;;;;;;;8.38;2.75;;;;;;;;;;5012295;28;20045;-67
2022/10/09 13:21:21;;;;;;;10.10;2.42;;;;;;;;;;5015408;28;20065;-67
2022/10/09 13:23:47;;;;;;;10.52;3.08;;;;;;;;;;5008146;28;20057;-67
2022/10/09 13:26:21;;;;;;;9.70;2.47;;;;;;;;;;5015904;28;20119;-67
2022/10/09 13:28:47;;;;;;;7.75;2.33;;;;;;;;;;5015425;28;20076;-67
2022/10/09 13:31:13;;;;;;;6.28;2.20;;;;;;;;;;5015845;28;20061;-67
2022/10/09 13:33:39;;;;;;;9.65;2.47;;;;;;;;;;5015522;28;20041;-67
2022/10/09 13:36:06;;;;;;;7.03;2.25;;;;;;;;;;5015329;28;20495;-67
2022/10/09 13:38:32;;;;;;;8.00;2.25;;;;;;;;;;5015206;28;20045;-67
2022/10/09 13:40:59;;;;;;;9.27;2.10;;;;;;;;;;5033362;28;20551;-67
2022/10/09 13:43:26;;;;;;;9.27;2.05;;;;;;;;;;5015266;28;20046;-67
2022/10/09 13:45:52;;;;;;;5.97;1.80;;;;;;;;;;5015416;28;20044;-67
2022/10/09 13:48:18;;;;;;;7.40;1.98;;;;;;;;;;4998821;28;20535;-67
2022/10/09 13:50:45;;;;;;;6.70;2.15;;;;;;;;;;5014931;28;20041;-67
2022/10/09 13:53:11;;;;;;;7.80;2.30;;;;;;;;;;5015375;28;20038;-67
2022/10/09 13:55:37;;;;;;;8.45;1.60;;;;;;;;;;5015192;28;20120;-67
2022/10/09 13:58:03;;;;;;;6.13;1.90;;;;;;;;;;5014836;28;20595;-67
2022/10/09 14:00:29;;;;;;;6.97;1.55;;;;;;;;;;4999379;28;20049;-67
2022/10/09 14:02:55;;;;;;;7.03;1.70;;;;;;;;;;5033184;28;20041;-67
2022/10/09 14:05:22;;;;;;;7.88;1.83;;;;;;;;;;5014595;28;20048;-67
2022/10/09 14:07:48;;;;;;;6.38;1.85;;;;;;;;;;5015085;28;20085;-68
2022/10/09 14:10:14;;;;;;;8.30;2.05;;;;;;;;;;5021428;28;20053;-68
2022/10/09 14:12:40;;;;;;;7.13;2.30;;;;;;;;;;5034409;28;20052;-68
2022/10/09 14:15:06;;;;;;;7.50;2.03;;;;;;;;;;5034779;28;20455;-68
2022/10/09 14:17:32;;;;;;;5.28;1.70;;;;;;;;;;5034552;28;20140;-68
2022/10/09 14:19:58;;;;;;;11.02;2.00;;;;;;;;;;5034360;28;20127;-67
2022/10/09 14:22:24;;;;;;;5.45;2.08;;;;;;;;;;5034829;28;20041;-68
2022/10/09 14:24:50;;;;;;;6.10;1.58;;;;;;;;;;5034782;28;20067;-68
2022/10/09 14:27:16;;;;;;;5.47;1.65;;;;;;;;;;5034019;28;20455;-68
2022/10/09 14:29:42;;;;;;;6.97;2.22;;;;;;;;;;5034210;28;20045;-67
2022/10/09 14:32:09;;;;;;;4.30;1.52;;;;;;;;;;5034294;28;20049;-67
2022/10/09 14:34:35;;;;;;;7.30;2.03;;;;;;;;;;5033815;28;20041;-67
2022/10/09 14:37:01;;;;;;;6.50;1.73;;;;;;;;;;5034551;28;20428;-67
2022/10/09 14:39:27;;;;;;;7.28;1.60;;;;;;;;;;5034101;28;20395;-67
2022/10/09 14:41:53;;;;;;;5.63;1.63;;;;;;;;;;5034301;28;20208;-67
2022/10/09 14:44:19;;;;;;;11.25;2.05;;;;;;;;;;5052584;28;20115;-67